Time;durP1;ratioP1;P1;durP2;ratioP2;P2;SDS_P1;SDS_P2;PMS_P1;PMS_P2;Temp;Humidity;BMP_temperature;BMP_pressure;BME280_temperature;BME280_humidity;BME280_pressure;Samples;Min_cycle;Max_cycle;Signal;HPM_P1;HPM_P2
2021/05/25 00:00:12;;;;;;;2.77;1.93;;;9.50;63.00;10.20;100155.00;;;;5059744;28;20496;-84
2021/05/25 00:02:42;;;;;;;2.30;1.50;;;9.40;62.90;10.20;100148.00;;;;5060809;28;21066;-84
2021/05/25 00:05:15;;;;;;;2.80;1.70;;;9.40;62.90;10.20;100145.00;;;;5055491;28;20546;-84
2021/05/25 00:07:43;;;;;;;3.63;1.93;;;9.40;62.10;10.20;100153.00;;;;5042117;28;20441;-83
2021/05/25 00:10:14;;;;;;;2.60;1.53;;;9.40;62.30;10.20;100145.00;;;;5039424;28;20550;-83
2021/05/25 00:12:42;;;;;;;2.10;1.40;;;9.40;61.80;10.20;100155.00;;;;5040381;28;20494;-84
2021/05/25 00:15:14;;;;;;;2.63;1.80;;;9.40;60.20;10.10;100133.00;;;;5055563;28;20495;-83
2021/05/25 00:17:42;;;;;;;4.23;1.30;;;9.40;59.50;10.10;100139.00;;;;5062074;28;20512;-84
2021/05/25 00:20:13;;;;;;;3.30;1.63;;;9.40;58.90;10.10;100154.00;;;;5073978;28;20696;-84
2021/05/25 00:22:41;;;;;;;1.90;1.10;;;9.40;57.50;10.20;100138.00;;;;5076977;28;20455;-84
2021/05/25 00:25:13;;;;;;;4.83;1.20;;;9.40;56.40;10.20;100130.00;;;;5078892;28;20448;-84
2021/05/25 00:27:42;;;;;;;4.70;1.70;;;9.40;54.90;10.20;100150.00;;;;5079809;28;20452;-83
2021/05/25 00:30:14;;;;;;;3.10;1.77;;;9.40;53.80;10.20;100161.00;;;;5080150;28;20416;-83
2021/05/25 00:32:42;;;;;;;5.80;1.97;;;9.40;53.40;10.20;100149.00;;;;5094876;28;20481;-83
2021/05/25 00:35:12;;;;;;;2.10;1.40;;;9.40;52.00;10.10;100159.00;;;;5059605;28;20542;-82
2021/05/25 00:37:40;;;;;;;1.50;1.00;;;9.40;50.80;10.10;100157.00;;;;5061615;28;20446;-82
2021/05/25 00:40:11;;;;;;;2.53;1.50;;;9.40;50.80;10.10;100157.00;;;;5084706;28;21017;-84
2021/05/25 00:42:40;;;;;;;4.17;1.57;;;9.40;50.90;10.10;100159.00;;;;5061519;28;21113;-83
2021/05/25 00:45:09;;;;;;;2.60;1.10;;;9.40;50.40;10.10;100154.00;;;;5067318;28;21114;-84
2021/05/25 00:47:38;;;;;;;3.13;1.40;;;9.40;50.20;10.00;100156.00;;;;5081058;28;20446;-84
2021/05/25 00:50:12;;;;;;;2.90;1.33;;;9.30;49.60;10.00;100153.00;;;;5082427;28;20430;-85
2021/05/25 00:52:44;;;;;;;2.97;1.40;;;9.30;49.80;9.90;100173.00;;;;5082796;28;20469;-85
2021/05/25 00:55:16;;;;;;;2.70;1.10;;;9.20;50.30;9.90;100170.00;;;;5069606;28;20455;-83
2021/05/25 00:57:45;;;;;;;3.60;1.20;;;9.20;50.20;9.90;100178.00;;;;5069255;28;20438;-86
2021/05/25 01:00:15;;;;;;;3.33;1.60;;;9.10;50.90;9.90;100178.00;;;;5077683;28;20514;-85
2021/05/25 01:02:44;;;;;;;1.67;1.10;;;9.10;50.00;9.80;100178.00;;;;5062951;28;20510;-84
2021/05/25 01:05:15;;;;;;;3.73;1.33;;;9.10;49.90;9.80;100174.00;;;;5076543;28;20469;-83
2021/05/25 01:07:44;;;;;;;1.90;1.20;;;9.10;49.50;9.80;100173.00;;;;5083309;28;20465;-84
2021/05/25 01:10:15;;;;;;;2.10;1.20;;;9.10;49.00;9.80;100171.00;;;;5083072;28;20514;-84
2021/05/25 01:12:51;;;;;;;2.57;1.60;;;9.10;49.20;9.80;100176.00;;;;5082483;28;20487;-83
2021/05/25 01:15:19;;;;;;;2.53;1.60;;;9.00;49.00;9.80;100166.00;;;;5081951;28;20518;-83
2021/05/25 01:17:48;;;;;;;2.50;1.40;;;9.00;49.00;9.70;100167.00;;;;5062767;28;20451;-82
2021/05/25 01:20:16;;;;;;;3.23;1.60;;;9.00;49.10;9.70;100171.00;;;;5061904;28;20501;-84
2021/05/25 01:22:50;;;;;;;4.20;1.67;;;9.00;48.70;9.80;100172.00;;;;5062480;28;20509;-83
2021/05/25 01:25:20;;;;;;;2.43;1.50;;;9.00;48.00;9.80;100185.00;;;;5063542;28;20838;-86
2021/05/25 01:27:54;;;;;;;2.47;1.50;;;9.10;47.50;9.90;100158.00;;;;5059978;28;20486;-83
2021/05/25 01:30:24;;;;;;;2.80;1.40;;;9.20;46.60;10.00;100184.00;;;;5062192;28;20440;-83
2021/05/25 01:32:53;;;;;;;2.43;1.40;;;9.30;46.10;10.10;100185.00;;;;5060112;28;20501;-84
2021/05/25 01:35:23;;;;;;;3.40;1.30;;;9.30;45.20;10.20;100178.00;;;;5060813;28;20447;-83
2021/05/25 01:37:54;;;;;;;1.90;1.30;;;9.40;44.40;10.20;100183.00;;;;5061908;28;20489;-83
2021/05/25 01:40:23;;;;;;;3.03;1.60;;;9.40;43.80;10.30;100181.00;;;;5078653;28;20485;-84
2021/05/25 01:42:52;;;;;;;2.23;1.20;;;9.50;43.50;10.30;100188.00;;;;5074108;28;20470;-83
2021/05/25 01:45:22;;;;;;;2.27;1.03;;;9.50;43.20;10.30;100169.00;;;;5078430;28;20441;-82
2021/05/25 01:47:51;;;;;;;2.77;1.40;;;9.50;43.00;10.20;100173.00;;;;5099301;28;20490;-84
2021/05/25 01:50:20;;;;;;;1.93;1.43;;;9.40;42.70;10.30;100169.00;;;;5077976;28;20439;-84
2021/05/25 01:53:00;;;;;;;2.00;1.10;;;9.50;42.20;10.30;100180.00;;;;5082247;28;20478;-84
2021/05/25 01:55:34;;;;;;;1.87;1.10;;;9.60;41.70;10.40;100168.00;;;;5074467;28;20451;-82
2021/05/25 01:58:06;;;;;;;1.73;1.00;;;9.60;40.80;10.50;100173.00;;;;5058936;28;20444;-82
2021/05/25 02:00:35;;;;;;;2.70;1.50;;;9.70;40.60;10.50;100178.00;;;;5055770;28;20987;-83
2021/05/25 02:03:04;;;;;;;2.57;1.47;;;9.80;40.10;10.50;100171.00;;;;5043482;28;20507;-82
2021/05/25 02:05:34;;;;;;;3.23;1.30;;;9.70;39.80;10.50;100174.00;;;;5055856;28;21185;-83
2021/05/25 02:08:05;;;;;;;2.30;1.53;;;9.70;39.80;10.60;100182.00;;;;5055921;28;20454;-83
2021/05/25 02:10:37;;;;;;;3.10;1.27;;;9.80;40.20;10.60;100186.00;;;;5056107;28;20454;-82
2021/05/25 02:13:07;;;;;;;2.17;1.20;;;9.80;39.80;10.60;100191.00;;;;5056275;28;20998;-83
2021/05/25 02:15:36;;;;;;;3.10;1.43;;;9.80;40.10;10.60;100193.00;;;;5055701;28;20973;-83
2021/05/25 02:18:07;;;;;;;1.87;1.10;;;9.80;40.40;10.70;100187.00;;;;5055970;28;20542;-83
2021/05/25 02:20:36;;;;;;;2.40;1.30;;;9.80;40.50;10.70;100188.00;;;;5056093;28;20463;-83
2021/05/25 02:23:06;;;;;;;2.93;1.37;;;9.80;41.00;10.60;100199.00;;;;5056415;28;20458;-83
2021/05/25 02:25:34;;;;;;;3.10;1.10;;;9.80;41.50;10.60;100181.00;;;;5055670;28;20542;-83
2021/05/25 02:28:03;;;;;;;2.40;1.07;;;9.80;41.40;10.60;100181.00;;;;5055638;28;20439;-83
2021/05/25 02:30:32;;;;;;;3.07;1.33;;;9.80;41.60;10.60;100184.00;;;;5055588;28;20990;-83
2021/05/25 02:33:07;;;;;;;3.27;1.10;;;9.80;40.50;10.60;100200.00;;;;5055576;28;20497;-83
2021/05/25 02:35:35;;;;;;;6.13;1.73;;;9.80;40.40;10.60;100198.00;;;;5055230;28;21248;-82
2021/05/25 02:38:06;;;;;;;4.30;0.90;;;9.90;39.30;10.60;100183.00;;;;5055934;28;20492;-82
2021/05/25 02:40:35;;;;;;;2.73;1.07;;;9.70;38.80;10.70;100189.00;;;;5074560;28;20974;-83
2021/05/25 02:43:04;;;;;;;2.27;1.20;;;9.80;38.80;10.70;100192.00;;;;5056055;28;20459;-82
2021/05/25 02:45:32;;;;;;;4.00;1.23;;;9.90;38.70;10.70;100191.00;;;;5056097;28;20479;-83
2021/05/25 02:48:00;;;;;;;2.73;1.20;;;9.90;39.30;10.70;100195.00;;;;5074120;28;20452;-82
2021/05/25 02:50:28;;;;;;;1.60;1.10;;;9.90;39.30;10.70;100187.00;;;;5056630;28;20543;-83
2021/05/25 02:52:56;;;;;;;3.10;1.03;;;9.90;40.30;10.70;100182.00;;;;5038286;28;20466;-83
2021/05/25 02:55:28;;;;;;;3.40;1.10;;;9.90;39.90;10.70;100182.00;;;;5058299;28;20803;-83
2021/05/25 02:57:57;;;;;;;3.40;1.00;;;9.90;39.60;10.70;100192.00;;;;5053597;28;20452;-82
2021/05/25 03:00:28;;;;;;;2.20;0.90;;;9.90;39.50;10.70;100215.00;;;;5038096;28;20530;-82
2021/05/25 03:02:56;;;;;;;2.03;0.80;;;9.90;39.40;10.70;100204.00;;;;5055597;28;20474;-83
2021/05/25 03:05:26;;;;;;;1.70;1.13;;;9.90;39.20;10.70;100199.00;;;;5055075;28;20443;-82
2021/05/25 03:07:57;;;;;;;3.47;1.10;;;9.90;39.70;10.70;100204.00;;;;5074027;28;20435;-83
2021/05/25 03:10:29;;;;;;;4.00;1.30;;;9.90;39.50;10.70;100196.00;;;;5055798;28;20496;-82
2021/05/25 03:12:58;;;;;;;2.17;1.20;;;9.90;39.00;10.70;100217.00;;;;5072888;28;20475;-82
2021/05/25 03:15:28;;;;;;;5.40;1.60;;;9.90;38.60;10.70;100196.00;;;;5052848;28;20521;-82
2021/05/25 03:17:56;;;;;;;2.37;1.60;;;9.90;38.20;10.60;100192.00;;;;5040436;28;20428;-83
2021/05/25 03:20:25;;;;;;;3.23;1.43;;;9.90;38.30;10.60;100208.00;;;;5041554;28;20511;-83
2021/05/25 03:22:54;;;;;;;2.20;1.20;;;9.90;38.50;10.60;100204.00;;;;5042450;28;21012;-84
2021/05/25 03:25:21;;;;;;;1.40;1.00;;;9.90;38.50;10.70;100196.00;;;;5042638;28;20444;-83
2021/05/25 03:27:50;;;;;;;3.17;1.10;;;9.90;38.40;10.70;100217.00;;;;5037582;28;20436;-83
2021/05/25 03:30:23;;;;;;;2.87;1.30;;;9.90;38.50;10.70;100210.00;;;;5044304;28;20456;-83
2021/05/25 03:32:52;;;;;;;1.70;1.13;;;9.90;38.50;10.60;100200.00;;;;5053878;28;20887;-83
2021/05/25 03:35:23;;;;;;;2.17;1.10;;;9.80;37.90;10.50;100200.00;;;;5035723;28;20456;-82
2021/05/25 03:37:51;;;;;;;2.50;1.23;;;9.80;38.20;10.50;100220.00;;;;5036922;28;20441;-83
2021/05/25 03:40:20;;;;;;;3.40;1.30;;;9.80;38.40;10.60;100213.00;;;;5053736;28;20575;-83
2021/05/25 03:42:52;;;;;;;3.60;1.10;;;9.80;38.20;10.60;100210.00;;;;5058144;28;20518;-82
2021/05/25 03:45:21;;;;;;;3.20;1.13;;;9.80;38.30;10.60;100212.00;;;;5056908;28;20447;-83
2021/05/25 03:47:49;;;;;;;2.27;1.20;;;9.80;37.20;10.60;100208.00;;;;5056853;28;20505;-83
2021/05/25 03:50:18;;;;;;;1.57;1.00;;;9.80;37.30;10.60;100216.00;;;;5057629;28;20486;-83
2021/05/25 03:52:48;;;;;;;2.90;0.90;;;9.80;36.20;10.60;100209.00;;;;5056574;28;20462;-83
2021/05/25 03:55:22;;;;;;;2.43;0.90;;;9.90;36.00;10.70;100214.00;;;;5056831;28;20490;-82
2021/05/25 04:00:38;;;;;;;3.70;0.80;;;9.90;34.80;10.80;100225.00;;;;5056865;28;20561;-83
2021/05/25 04:03:06;;;;;;;3.50;1.40;;;9.90;35.70;10.70;100215.00;;;;5056994;28;20482;-83
2021/05/25 04:05:34;;;;;;;3.20;1.30;;;10.00;35.10;10.70;100220.00;;;;5056230;28;20439;-83
2021/05/25 04:08:02;;;;;;;3.17;1.10;;;9.90;35.70;10.70;100229.00;;;;5056512;28;20431;-83
2021/05/25 04:10:30;;;;;;;3.03;1.17;;;9.90;35.30;10.80;100224.00;;;;5056106;28;20508;-83
2021/05/25 04:12:59;;;;;;;3.67;1.30;;;9.90;34.90;10.90;100222.00;;;;5072158;28;21010;-82
2021/05/25 04:15:27;;;;;;;2.50;1.27;;;10.00;33.50;10.90;100218.00;;;;5058207;28;20494;-83
2021/05/25 04:17:55;;;;;;;2.17;1.00;;;10.00;33.00;10.80;100226.00;;;;5077076;28;21004;-82
2021/05/25 04:20:24;;;;;;;1.50;0.90;;;10.00;31.90;10.80;100210.00;;;;5059159;28;20463;-83
2021/05/25 04:22:57;;;;;;;2.03;1.10;;;10.00;31.70;10.80;100206.00;;;;5059046;28;20463;-83
2021/05/25 04:25:26;;;;;;;3.10;1.00;;;10.00;31.70;10.90;100196.00;;;;5058642;28;20990;-82
2021/05/25 04:27:55;;;;;;;1.50;1.00;;;10.10;31.10;11.00;100218.00;;;;5059055;28;20451;-83
2021/05/25 04:30:24;;;;;;;3.63;1.03;;;10.20;30.80;11.10;100201.00;;;;5058954;28;21034;-83
2021/05/25 04:32:52;;;;;;;2.70;1.30;;;10.20;29.70;11.20;100200.00;;;;5076832;28;20560;-83
2021/05/25 04:35:21;;;;;;;1.70;1.00;;;10.30;29.70;11.20;100221.00;;;;5058583;28;20951;-83
2021/05/25 04:37:50;;;;;;;5.03;1.87;;;10.30;29.70;11.10;100229.00;;;;5076331;28;20438;-83
2021/05/25 04:40:19;;;;;;;2.20;1.07;;;10.20;29.30;11.20;100221.00;;;;5057964;28;20506;-83
2021/05/25 04:42:47;;;;;;;2.53;1.13;;;10.30;29.30;11.10;100211.00;;;;5058770;28;20998;-83
2021/05/25 04:45:16;;;;;;;1.50;0.83;;;10.30;29.10;11.10;100210.00;;;;5058340;28;20542;-83
2021/05/25 04:47:45;;;;;;;1.53;0.83;;;10.20;28.80;11.10;100230.00;;;;5059938;28;20471;-82
2021/05/25 04:50:15;;;;;;;2.33;0.97;;;10.30;28.80;11.20;100219.00;;;;5058588;28;20487;-82
2021/05/25 04:52:42;;;;;;;3.40;1.00;;;10.30;28.00;11.30;100229.00;;;;5057555;28;20467;-83
2021/05/25 04:55:15;;;;;;;2.47;1.10;;;10.40;28.10;11.40;100228.00;;;;5057030;28;20459;-83
2021/05/25 04:57:48;;;;;;;4.00;1.30;;;10.50;28.20;11.50;100226.00;;;;5058046;28;20442;-83
2021/05/25 05:00:21;;;;;;;1.97;0.97;;;10.60;28.20;11.60;100237.00;;;;5058019;28;20486;-82
2021/05/25 05:02:50;;;;;;;2.97;1.37;;;10.60;26.30;11.40;100231.00;;;;5079920;28;20543;-82
2021/05/25 05:05:19;;;;;;;4.27;1.70;;;10.60;27.00;11.40;100234.00;;;;5059471;28;20443;-82
2021/05/25 05:07:47;;;;;;;2.83;1.20;;;10.50;27.70;11.30;100228.00;;;;5063695;28;20975;-83
2021/05/25 05:10:17;;;;;;;3.87;0.93;;;10.40;29.00;11.20;100225.00;;;;5065192;28;20461;-83
2021/05/25 05:12:45;;;;;;;2.03;0.93;;;10.30;28.40;11.50;100230.00;;;;5080222;28;20506;-83
2021/05/25 05:15:15;;;;;;;2.17;1.20;;;10.50;27.70;11.60;100223.00;;;;5078105;28;20475;-83
2021/05/25 05:17:45;;;;;;;3.00;2.23;;;10.60;28.20;11.60;100221.00;;;;5060808;28;20459;-83
2021/05/25 05:20:15;;;;;;;3.17;1.13;;;10.60;27.10;12.00;100221.00;;;;5062256;28;20486;-82
2021/05/25 05:22:44;;;;;;;2.40;1.20;;;10.90;25.20;11.90;100225.00;;;;5067466;28;20471;-82
2021/05/25 05:25:13;;;;;;;2.63;1.10;;;11.00;23.20;12.00;100246.00;;;;5081275;28;20520;-82
2021/05/25 05:27:41;;;;;;;4.90;2.00;;;11.00;23.00;11.90;100231.00;;;;5081664;28;20502;-82
2021/05/25 05:30:12;;;;;;;3.10;1.13;;;10.90;23.20;11.70;100247.00;;;;5081596;28;20442;-82
2021/05/25 05:32:40;;;;;;;2.90;1.20;;;10.80;23.90;11.70;100261.00;;;;5077056;28;20460;-83
2021/05/25 05:35:10;;;;;;;1.30;0.80;;;10.80;23.10;11.80;100252.00;;;;5059092;28;20444;-83
2021/05/25 05:37:39;;;;;;;2.33;1.20;;;10.90;22.40;12.00;100238.00;;;;5064967;28;20440;-83
2021/05/25 05:40:08;;;;;;;1.80;1.10;;;11.00;22.70;11.40;100275.00;;;;5077144;28;20452;-83
2021/05/25 05:42:56;;;;;;;4.70;1.00;;;10.60;26.70;11.00;100252.00;;;;5062194;28;20541;-83
2021/05/25 05:45:25;;;;;;;2.80;1.23;;;10.20;32.40;10.90;100265.00;;;;5075969;28;20434;-85
2021/05/25 05:47:53;;;;;;;3.10;1.13;;;10.00;35.10;10.60;100239.00;;;;5066381;28;20424;-84
2021/05/25 05:50:21;;;;;;;5.20;1.63;;;9.70;37.00;10.40;100264.00;;;;5064157;28;20471;-83
2021/05/25 05:52:49;;;;;;;1.80;1.00;;;9.60;39.80;10.50;100269.00;;;;5067250;28;20562;-83
2021/05/25 05:55:18;;;;;;;4.00;1.57;;;9.60;41.30;10.50;100246.00;;;;5059171;28;20512;-83
2021/05/25 05:57:47;;;;;;;4.00;1.67;;;9.60;40.40;10.60;100271.00;;;;5076064;28;20512;-84
2021/05/25 06:00:17;;;;;;;2.53;1.30;;;9.70;40.90;10.60;100268.00;;;;5042551;28;20466;-84
2021/05/25 06:02:45;;;;;;;3.23;1.37;;;9.70;39.60;10.60;100277.00;;;;5076795;28;20550;-83
2021/05/25 06:05:14;;;;;;;3.53;1.50;;;9.80;37.70;10.80;100297.00;;;;5075052;28;20439;-84
2021/05/25 06:07:42;;;;;;;3.03;1.30;;;9.80;37.60;10.90;100291.00;;;;5075001;28;20871;-82
2021/05/25 06:10:13;;;;;;;6.00;1.03;;;10.00;35.20;10.90;100294.00;;;;5077058;28;20822;-83
2021/05/25 06:12:41;;;;;;;2.17;1.03;;;10.00;34.90;11.00;100293.00;;;;5062331;28;20478;-83
2021/05/25 06:16:24;;;;;;;2.80;1.10;;;10.10;33.40;11.40;100273.00;;;;5060977;28;20447;-82
2021/05/25 06:18:52;;;;;;;2.50;1.40;;;10.40;31.40;11.90;100288.00;;;;5051573;28;20501;-83
2021/05/25 06:21:20;;;;;;;2.60;1.23;;;10.80;27.90;12.20;100264.00;;;;5059164;28;20498;-83
2021/05/25 06:23:48;;;;;;;2.93;0.97;;;11.10;27.10;12.30;100288.00;;;;5074039;28;20538;-84
2021/05/25 06:26:20;;;;;;;2.23;1.20;;;11.20;27.90;11.90;100290.00;;;;5075905;28;20512;-83
2021/05/25 06:28:48;;;;;;;4.67;1.23;;;10.90;29.20;11.40;100297.00;;;;5058679;28;20542;-83
2021/05/25 06:31:15;;;;;;;2.70;1.27;;;10.40;34.20;11.30;100280.00;;;;5058721;28;20819;-84
2021/05/25 06:33:43;;;;;;;2.50;1.10;;;10.20;38.20;11.40;100293.00;;;;5058487;28;20561;-83
2021/05/25 06:36:11;;;;;;;1.40;1.00;;;10.40;37.50;12.00;100287.00;;;;5061756;28;20455;-84
2021/05/25 06:38:39;;;;;;;1.87;1.00;;;10.80;34.50;12.40;100282.00;;;;5060426;28;20963;-83
2021/05/25 06:41:07;;;;;;;3.07;0.90;;;11.20;30.50;12.50;100291.00;;;;5061777;28;20479;-84
2021/05/25 06:43:36;;;;;;;2.43;1.07;;;11.20;28.10;12.40;100303.00;;;;5076956;28;20466;-82
2021/05/25 06:46:06;;;;;;;1.60;0.80;;;11.20;28.60;12.30;100314.00;;;;5097946;28;20431;-82
2021/05/25 06:48:34;;;;;;;2.43;0.90;;;11.20;28.60;11.90;100307.00;;;;5070418;28;20455;-84
2021/05/25 06:51:06;;;;;;;2.77;0.90;;;10.90;28.70;11.90;100308.00;;;;5080010;28;20434;-81
2021/05/25 06:53:35;;;;;;;2.10;0.87;;;10.90;29.80;12.00;100307.00;;;;5080052;28;20474;-81
2021/05/25 06:56:05;;;;;;;3.50;1.20;;;11.00;28.10;12.10;100287.00;;;;5078231;28;20451;-82
2021/05/25 06:58:33;;;;;;;3.47;1.00;;;11.00;27.60;12.00;100303.00;;;;5078185;28;20437;-83
2021/05/25 07:01:02;;;;;;;2.67;0.90;;;11.00;27.70;11.90;100302.00;;;;5079927;28;20492;-80
2021/05/25 07:03:30;;;;;;;3.43;0.90;;;10.90;27.90;11.80;100304.00;;;;5077024;28;20460;-78
2021/05/25 07:05:58;;;;;;;3.40;1.10;;;10.80;28.40;11.80;100296.00;;;;5085234;28;20451;-81
2021/05/25 07:08:26;;;;;;;1.47;0.70;;;10.80;29.30;11.70;100300.00;;;;5080355;28;20694;-82
2021/05/25 07:10:56;;;;;;;3.37;0.97;;;10.70;27.30;11.60;100293.00;;;;5080413;28;20999;-83
2021/05/25 07:13:24;;;;;;;1.43;0.80;;;10.70;28.60;11.60;100287.00;;;;5080018;28;20455;-84
2021/05/25 07:15:52;;;;;;;1.33;0.83;;;10.70;28.30;11.80;100296.00;;;;5078783;28;20443;-80
2021/05/25 07:18:21;;;;;;;1.93;0.90;;;10.80;28.00;11.90;100299.00;;;;5079159;28;20448;-82
2021/05/25 07:20:49;;;;;;;2.17;1.13;;;10.90;27.60;11.90;100305.00;;;;5080250;28;20458;-83
2021/05/25 07:23:17;;;;;;;4.80;1.03;;;10.90;27.40;11.90;100304.00;;;;5097860;28;20446;-82
2021/05/25 07:25:46;;;;;;;2.20;0.93;;;10.90;27.90;11.90;100280.00;;;;5079007;28;20443;-83
2021/05/25 07:28:14;;;;;;;1.67;0.90;;;10.90;26.30;12.00;100290.00;;;;5065967;28;20458;-84
2021/05/25 07:30:43;;;;;;;1.47;0.80;;;11.10;25.90;12.20;100287.00;;;;5077733;28;20431;-82
2021/05/25 07:33:11;;;;;;;1.17;0.60;;;11.20;25.10;12.60;100297.00;;;;5078431;28;20471;-82
2021/05/25 07:35:40;;;;;;;2.53;1.00;;;11.40;23.50;12.70;100290.00;;;;5079416;28;20435;-83
2021/05/25 07:38:08;;;;;;;1.93;0.83;;;11.60;23.60;12.60;100311.00;;;;5078686;28;20466;-83
2021/05/25 07:40:40;;;;;;;3.90;0.97;;;11.60;23.70;12.90;100297.00;;;;5076712;28;20477;-83
2021/05/25 07:43:08;;;;;;;3.90;1.70;;;11.70;23.40;12.90;100311.00;;;;5078381;28;20519;-82
2021/05/25 07:45:36;;;;;;;2.53;0.87;;;11.70;24.50;12.70;100303.00;;;;5066616;28;20455;-83
2021/05/25 07:48:05;;;;;;;1.70;0.80;;;11.60;23.00;12.80;100323.00;;;;5064653;28;20444;-83
2021/05/25 07:50:34;;;;;;;2.00;0.80;;;11.70;24.20;13.20;100324.00;;;;5065289;28;20439;-83
2021/05/25 07:53:03;;;;;;;1.83;0.80;;;12.00;23.00;13.40;100308.00;;;;5079583;28;20486;-83
2021/05/25 07:55:32;;;;;;;1.20;0.70;;;12.20;20.70;13.40;100331.00;;;;5081861;28;20446;-83
2021/05/25 07:58:02;;;;;;;1.50;0.83;;;12.10;20.10;13.10;100310.00;;;;5099574;28;20449;-82
2021/05/25 08:00:32;;;;;;;1.30;0.80;;;11.90;22.20;12.80;100316.00;;;;5081890;28;20453;-83
2021/05/25 08:03:01;;;;;;;1.30;0.80;;;11.60;23.60;12.70;100339.00;;;;5095300;28;20893;-81
2021/05/25 08:05:31;;;;;;;1.50;0.80;;;11.50;24.80;12.50;100345.00;;;;5073355;28;20463;-84
2021/05/25 08:08:02;;;;;;;3.20;1.20;;;11.30;24.90;12.40;100332.00;;;;5065089;28;20447;-84
2021/05/25 08:10:31;;;;;;;1.40;0.80;;;11.30;26.40;12.70;100332.00;;;;5068864;28;20432;-84
2021/05/25 08:12:59;;;;;;;1.80;0.80;;;11.60;25.20;13.30;100332.00;;;;5066429;28;20523;-84
2021/05/25 08:15:30;;;;;;;1.80;0.90;;;12.00;21.90;13.50;100339.00;;;;5085822;28;20431;-85
2021/05/25 08:18:07;;;;;;;1.20;0.70;;;12.20;20.00;13.50;100341.00;;;;5085787;28;20821;-84
2021/05/25 08:20:39;;;;;;;1.50;0.70;;;12.20;20.00;13.30;100347.00;;;;5077581;28;20447;-84
2021/05/25 08:23:28;;;;;;;1.63;0.80;;;12.00;21.80;12.90;100337.00;;;;5072692;28;20554;-84
2021/05/25 08:26:03;;;;;;;1.00;0.60;;;11.80;23.00;12.90;100303.00;;;;5071901;28;20435;-83
2021/05/25 08:28:31;;;;;;;1.00;0.60;;;11.70;22.90;12.80;100347.00;;;;5072119;28;20435;-84
2021/05/25 08:31:00;;;;;;;1.20;0.77;;;11.70;23.80;12.80;100367.00;;;;5070143;28;20481;-82
2021/05/25 08:33:28;;;;;;;3.20;1.07;;;11.60;24.70;12.80;100355.00;;;;5086311;28;20495;-84
2021/05/25 08:35:58;;;;;;;2.17;0.70;;;11.60;26.10;12.90;100286.00;;;;5079355;28;20975;-84
2021/05/25 08:38:26;;;;;;;1.93;0.80;;;11.70;24.10;12.50;100363.00;;;;5068035;28;20508;-85
2021/05/25 08:40:56;;;;;;;2.10;0.83;;;11.50;24.60;12.60;100354.00;;;;5090586;28;20476;-84
2021/05/25 08:43:25;;;;;;;1.90;0.70;;;11.50;27.10;12.90;100355.00;;;;5066531;28;20495;-84
2021/05/25 08:45:53;;;;;;;1.37;0.80;;;11.60;26.90;13.00;100370.00;;;;5066820;28;20424;-84
2021/05/25 08:48:21;;;;;;;1.47;0.60;;;11.70;25.20;13.20;100371.00;;;;5075225;28;20500;-83
2021/05/25 08:50:56;;;;;;;2.03;0.60;;;11.90;23.40;13.20;100355.00;;;;5076107;28;20455;-84
2021/05/25 08:53:25;;;;;;;2.27;0.80;;;11.90;22.00;12.90;100377.00;;;;5073051;28;20463;-83
2021/05/25 08:55:53;;;;;;;1.70;0.80;;;11.70;23.70;12.70;100387.00;;;;5070841;28;20451;-83
2021/05/25 08:58:24;;;;;;;1.87;0.77;;;11.60;26.40;12.60;100393.00;;;;5065731;28;20455;-84
2021/05/25 09:00:55;;;;;;;1.63;0.67;;;11.50;27.60;12.40;100376.00;;;;5066620;28;20553;-83
2021/05/25 09:03:23;;;;;;;1.30;0.90;;;11.30;29.60;12.60;100377.00;;;;5084610;28;20472;-84
2021/05/25 09:05:55;;;;;;;1.53;0.70;;;11.30;30.90;13.00;100385.00;;;;5066917;28;20493;-84
2021/05/25 09:08:23;;;;;;;1.80;1.07;;;11.70;30.00;13.50;100386.00;;;;5066254;28;20489;-84
2021/05/25 09:10:52;;;;;;;3.10;1.00;;;12.00;27.90;14.10;100373.00;;;;5063790;28;20455;-84
2021/05/25 09:13:22;;;;;;;1.50;0.60;;;12.50;24.60;14.50;100372.00;;;;5062697;28;20970;-84
2021/05/25 09:15:53;;;;;;;2.47;0.70;;;13.00;18.80;14.90;100378.00;;;;5060769;28;20443;-85
2021/05/25 09:18:25;;;;;;;1.10;0.70;;;13.40;15.70;15.30;100378.00;;;;5062278;28;20451;-85
2021/05/25 09:20:56;;;;;;;1.97;0.60;;;13.70;13.70;15.40;100385.00;;;;5066818;28;20935;-85
2021/05/25 09:23:44;;;;;;;1.70;0.90;;;13.80;12.80;14.80;100378.00;;;;5063837;28;20482;-85
2021/05/25 09:26:17;;;;;;;1.20;0.60;;;13.50;11.10;14.80;100381.00;;;;5065791;28;20887;-85
2021/05/25 09:28:57;;;;;;;1.43;0.80;;;13.30;12.50;14.60;100386.00;;;;5084716;28;20940;-84
2021/05/25 09:31:38;;;;;;;1.00;0.60;;;13.20;14.50;14.20;100381.00;;;;5079113;28;20489;-83
2021/05/25 09:34:13;;;;;;;1.40;0.60;;;12.80;16.10;13.70;100408.00;;;;5098967;28;20423;-84
2021/05/25 09:36:59;;;;;;;1.00;0.60;;;12.60;18.30;13.00;100397.00;;;;5081743;28;20439;-82
2021/05/25 09:39:30;;;;;;;1.30;0.60;;;12.00;20.20;12.60;100390.00;;;;5082050;28;20446;-81
2021/05/25 09:42:00;;;;;;;1.10;0.60;;;11.70;20.70;12.70;100406.00;;;;5082223;28;20637;-81
2021/05/25 09:44:29;;;;;;;1.10;0.60;;;11.80;21.80;13.00;100381.00;;;;5081978;28;20465;-83
2021/05/25 09:47:00;;;;;;;2.10;0.60;;;12.00;21.30;13.20;100378.00;;;;5067538;28;20458;-84
2021/05/25 09:49:29;;;;;;;0.97;0.60;;;12.20;20.50;13.50;100388.00;;;;5064406;28;20443;-84
2021/05/25 09:52:05;;;;;;;1.77;0.60;;;12.40;18.20;13.40;100379.00;;;;5062007;28;20519;-84
2021/05/25 09:54:34;;;;;;;3.73;0.70;;;12.30;16.70;13.50;100381.00;;;;5061468;28;20431;-84
2021/05/25 09:57:04;;;;;;;1.13;0.70;;;12.40;16.30;13.60;100396.00;;;;5057431;28;20444;-84
2021/05/25 09:59:34;;;;;;;1.10;0.53;;;12.40;15.90;13.60;100391.00;;;;5041742;28;20450;-85
2021/05/25 10:02:20;;;;;;;2.50;0.77;;;12.40;14.90;13.50;100396.00;;;;5049016;28;20475;-86
2021/05/25 10:05:03;;;;;;;1.93;0.70;;;12.30;15.90;13.50;100407.00;;;;5063205;28;20451;-84
2021/05/25 10:07:34;;;;;;;1.00;0.60;;;12.50;16.70;13.50;100403.00;;;;5064539;28;20447;-86
2021/05/25 10:10:06;;;;;;;1.73;0.80;;;12.60;15.20;13.40;100417.00;;;;5063184;28;20443;-84
2021/05/25 10:12:36;;;;;;;1.10;0.70;;;12.40;17.90;13.50;100408.00;;;;5077530;28;20475;-85
2021/05/25 10:15:06;;;;;;;1.60;0.93;;;12.20;21.10;13.40;100430.00;;;;5077989;28;20436;-86
2021/05/25 10:17:44;;;;;;;2.47;1.30;;;12.10;24.00;13.10;100410.00;;;;5058609;28;20452;-88
2021/05/25 10:20:13;;;;;;;1.17;0.73;;;12.10;22.20;13.30;100424.00;;;;5041607;28;20880;-85
2021/05/25 10:22:41;;;;;;;1.70;0.70;;;12.20;26.10;13.70;100423.00;;;;5058107;28;20533;-85
2021/05/25 10:25:15;;;;;;;2.00;1.27;;;12.60;25.50;13.70;100414.00;;;;5058226;28;21035;-85
2021/05/25 10:27:44;;;;;;;1.57;0.80;;;12.70;23.80;14.00;100424.00;;;;5040123;28;20940;-86
2021/05/25 10:30:43;;;;;;;1.50;0.70;;;12.90;23.70;13.90;100441.00;;;;5060046;28;20441;-86
2021/05/25 10:33:41;;;;;;;2.20;1.00;;;12.80;24.10;13.80;100426.00;;;;5042618;28;20468;-85
2021/05/25 10:36:10;;;;;;;2.53;0.90;;;12.70;23.50;14.10;100427.00;;;;5045386;28;20458;-85
2021/05/25 10:38:56;;;;;;;1.63;0.83;;;12.90;26.70;14.90;100426.00;;;;5058995;28;20447;-86
2021/05/25 10:41:35;;;;;;;2.30;1.00;;;13.70;24.00;15.40;100431.00;;;;5041131;28;20949;-85
2021/05/25 10:44:05;;;;;;;2.10;1.20;;;14.30;20.40;15.80;100432.00;;;;5060746;28;20454;-86
2021/05/25 10:46:33;;;;;;;1.30;0.80;;;14.70;15.40;15.40;100456.00;;;;5058072;28;20510;-86
2021/05/25 10:49:11;;;;;;;2.37;0.90;;;14.30;13.70;14.70;100464.00;;;;5058015;28;20444;-86
2021/05/25 10:52:13;;;;;;;2.63;1.50;;;13.70;15.90;14.00;100467.00;;;;5040767;28;20992;-86
2021/05/25 10:55:00;;;;;;;1.77;0.80;;;13.00;20.80;13.50;100452.00;;;;5056341;28;20912;-84
2021/05/25 10:57:48;;;;;;;1.57;0.90;;;12.50;24.30;14.00;100455.00;;;;5056149;28;20491;-85
2021/05/25 11:00:29;;;;;;;3.70;0.80;;;12.70;26.20;14.90;100442.00;;;;5057795;28;20808;-84
2021/05/25 11:03:00;;;;;;;1.90;0.80;;;13.50;23.10;15.60;100460.00;;;;5041274;28;20561;-86
2021/05/25 11:05:45;;;;;;;1.90;0.97;;;14.10;16.90;15.50;100478.00;;;;5059698;28;20657;-87
2021/05/25 11:08:40;;;;;;;3.27;0.90;;;14.30;12.60;14.60;100492.00;;;;5043370;28;20444;-85